Time;durP1;ratioP1;P1;durP2;ratioP2;P2;SDS_P1;SDS_P2;PMS_P1;PMS_P2;Temp;Humidity;BMP_temperature;BMP_pressure;BME280_temperature;BME280_humidity;BME280_pressure;Samples;Min_cycle;Max_cycle;Signal;HPM_P1;HPM_P2
2021/03/12 00:00:45;;;;;;;0.50;0.50;;;10.40;38.80;;;;;;10462036;28;20310;-72
2021/03/12 00:05:50;;;;;;;0.50;0.50;;;10.30;39.20;;;;;;10465631;28;20673;-72
2021/03/12 00:10:52;;;;;;;0.50;0.50;;;10.20;39.00;;;;;;10474078;28;20325;-72
2021/03/12 00:15:56;;;;;;;3.23;0.70;;;10.20;39.00;;;;;;10469258;28;20255;-72
2021/03/12 00:20:59;;;;;;;0.57;0.50;;;10.10;39.10;;;;;;10471467;28;20585;-71
2021/03/12 00:26:02;;;;;;;0.77;0.50;;;10.00;39.00;;;;;;10464190;28;20225;-72
2021/03/12 00:31:06;;;;;;;0.50;0.50;;;10.00;39.00;;;;;;10470728;28;20232;-72
2021/03/12 00:36:09;;;;;;;0.60;0.50;;;10.00;39.10;;;;;;10469816;28;20217;-72
2021/03/12 00:41:11;;;;;;;1.03;0.53;;;9.90;40.80;;;;;;10464086;28;20691;-72
2021/03/12 00:46:14;;;;;;;0.60;0.50;;;9.90;40.20;;;;;;10465093;28;20319;-71
2021/03/12 00:51:17;;;;;;;0.60;0.60;;;9.90;40.40;;;;;;10451529;28;20228;-72
2021/03/12 00:56:19;;;;;;;1.37;0.60;;;9.80;40.10;;;;;;10459239;28;20247;-71
2021/03/12 01:01:22;;;;;;;0.70;0.50;;;9.80;40.10;;;;;;10458127;28;20236;-72
2021/03/12 01:06:24;;;;;;;0.53;0.40;;;9.80;40.30;;;;;;10456130;28;20282;-72
2021/03/12 01:11:26;;;;;;;0.60;0.50;;;9.80;40.00;;;;;;10458676;28;20225;-71
2021/03/12 01:16:29;;;;;;;0.70;0.50;;;9.80;39.90;;;;;;10466731;28;20311;-71
2021/03/12 01:21:31;;;;;;;0.70;0.50;;;9.80;39.80;;;;;;10476583;28;20725;-72
2021/03/12 01:26:34;;;;;;;0.50;0.50;;;9.80;39.80;;;;;;10466337;28;20594;-72
2021/03/12 01:31:37;;;;;;;0.40;0.40;;;9.80;39.80;;;;;;10454933;28;20313;-72
2021/03/12 01:36:39;;;;;;;0.63;0.40;;;9.70;40.10;;;;;;10467202;28;20228;-72
2021/03/12 01:41:41;;;;;;;0.50;0.40;;;9.70;39.80;;;;;;10448793;28;20798;-71
2021/03/12 01:46:44;;;;;;;0.53;0.40;;;9.70;40.10;;;;;;10475416;28;20229;-72
2021/03/12 01:51:47;;;;;;;0.53;0.53;;;9.70;40.50;;;;;;10462369;28;20316;-72
2021/03/12 01:56:49;;;;;;;1.27;0.57;;;9.60;40.20;;;;;;10457269;28;20224;-71
2021/03/12 02:01:52;;;;;;;1.03;0.50;;;9.60;40.50;;;;;;10466863;28;20225;-72
2021/03/12 02:06:55;;;;;;;0.67;0.40;;;9.60;40.50;;;;;;10448251;28;20255;-72
2021/03/12 02:12:02;;;;;;;0.50;0.40;;;9.60;40.50;;;;;;10444762;28;20312;-72
2021/03/12 02:17:13;;;;;;;0.50;0.50;;;9.60;40.50;;;;;;10467824;28;20255;-72
2021/03/12 02:22:18;;;;;;;0.40;0.40;;;9.50;40.50;;;;;;10461807;28;20312;-72
2021/03/12 02:27:23;;;;;;;0.97;0.50;;;9.60;40.90;;;;;;10451479;28;20227;-75
2021/03/12 02:32:30;;;;;;;1.80;0.50;;;9.50;40.50;;;;;;10451793;28;20227;-75
2021/03/12 02:37:33;;;;;;;0.50;0.50;;;9.50;40.50;;;;;;10439871;28;20646;-75
2021/03/12 02:42:37;;;;;;;0.60;0.50;;;9.50;40.50;;;;;;10447213;28;20739;-74
2021/03/12 02:47:40;;;;;;;1.07;0.43;;;9.60;40.50;;;;;;10459237;28;20235;-75
2021/03/12 02:52:45;;;;;;;0.50;0.43;;;9.60;40.50;;;;;;10439643;28;20700;-75
2021/03/12 02:57:49;;;;;;;0.50;0.50;;;9.60;40.50;;;;;;10441029;28;20220;-75
2021/03/12 03:02:52;;;;;;;0.67;0.50;;;9.80;40.70;;;;;;10447648;28;20624;-75
2021/03/12 03:07:55;;;;;;;0.63;0.40;;;9.60;40.50;;;;;;10443489;28;20220;-75
2021/03/12 03:12:59;;;;;;;0.53;0.50;;;9.60;40.50;;;;;;10462089;28;20239;-75
2021/03/12 03:18:02;;;;;;;0.73;0.50;;;9.60;40.50;;;;;;10468146;28;20274;-75
2021/03/12 03:23:04;;;;;;;0.60;0.60;;;9.60;40.20;;;;;;10456880;28;20232;-74
2021/03/12 03:28:07;;;;;;;1.13;0.60;;;9.70;40.00;;;;;;10459870;28;20602;-75
2021/03/12 03:33:10;;;;;;;0.60;0.50;;;9.70;39.80;;;;;;10461789;28;20259;-74
2021/03/12 03:38:12;;;;;;;0.50;0.50;;;9.70;39.60;;;;;;10459911;28;20256;-75
2021/03/12 03:43:16;;;;;;;0.67;0.47;;;9.70;39.60;;;;;;10463031;28;20237;-74
2021/03/12 03:48:19;;;;;;;0.80;0.50;;;9.60;39.80;;;;;;10460471;28;20309;-75
2021/03/12 03:53:22;;;;;;;0.50;0.50;;;9.60;39.70;;;;;;10458575;28;20225;-75
2021/03/12 03:58:26;;;;;;;0.80;0.53;;;9.60;39.80;;;;;;10469462;28;20697;-75
2021/03/12 04:03:29;;;;;;;1.43;0.77;;;9.60;40.00;;;;;;10461922;28;20225;-75
2021/03/12 04:08:32;;;;;;;0.70;0.50;;;9.50;40.00;;;;;;10462909;28;20224;-75
2021/03/12 04:13:36;;;;;;;1.13;0.50;;;9.40;40.00;;;;;;10461864;28;20696;-75
2021/03/12 04:18:40;;;;;;;1.10;0.70;;;9.40;40.40;;;;;;10471263;28;20313;-75
2021/03/12 04:23:43;;;;;;;1.50;0.60;;;9.30;40.30;;;;;;10471991;28;20231;-75
2021/03/12 04:28:46;;;;;;;2.93;0.80;;;9.30;40.30;;;;;;10467182;28;20587;-75
2021/03/12 04:33:49;;;;;;;3.50;1.87;;;9.20;40.20;;;;;;10467280;28;20220;-75
2021/03/12 04:38:51;;;;;;;1.53;0.90;;;9.20;40.20;;;;;;10468979;28;20235;-75
2021/03/12 04:43:55;;;;;;;1.93;0.90;;;9.30;40.30;;;;;;10467088;28;20763;-75
2021/03/12 04:48:57;;;;;;;1.30;0.70;;;9.30;40.30;;;;;;10471072;28;20228;-75
2021/03/12 04:54:00;;;;;;;1.77;0.73;;;9.30;40.20;;;;;;10471701;28;20231;-75
2021/03/12 04:59:04;;;;;;;1.03;0.80;;;9.30;40.20;;;;;;10466638;28;20225;-74
2021/03/12 05:04:07;;;;;;;2.10;0.90;;;9.20;40.10;;;;;;10472547;28;20233;-75
2021/03/12 05:09:10;;;;;;;0.70;0.70;;;9.20;39.80;;;;;;10468275;28;20229;-72
2021/03/12 05:14:14;;;;;;;1.77;0.90;;;9.10;39.80;;;;;;10472632;28;20233;-75
2021/03/12 05:19:16;;;;;;;1.37;0.60;;;9.00;39.80;;;;;;10475015;28;20232;-75
2021/03/12 05:24:19;;;;;;;1.60;0.63;;;9.00;39.80;;;;;;10469020;28;20289;-75
2021/03/12 05:29:22;;;;;;;0.63;0.60;;;8.90;39.70;;;;;;10471146;28;20794;-75
2021/03/12 05:34:24;;;;;;;1.93;0.90;;;8.90;39.70;;;;;;10469154;28;20591;-75
2021/03/12 05:39:26;;;;;;;1.50;0.80;;;8.90;39.70;;;;;;10472252;28;20236;-76
2021/03/12 05:44:29;;;;;;;1.67;0.90;;;8.80;39.70;;;;;;10457121;28;20229;-75
2021/03/12 05:49:34;;;;;;;2.33;1.20;;;8.90;40.00;;;;;;10474966;28;20307;-76
2021/03/12 05:54:36;;;;;;;1.57;1.00;;;8.90;40.00;;;;;;10478022;28;20232;-75
2021/03/12 05:59:40;;;;;;;1.47;1.00;;;8.80;39.90;;;;;;10468758;28;20734;-75
2021/03/12 06:04:44;;;;;;;2.60;1.83;;;8.80;39.90;;;;;;10462281;28;20225;-76
2021/03/12 06:09:47;;;;;;;3.07;1.57;;;8.80;39.90;;;;;;10454461;28;20229;-76
2021/03/12 06:14:52;;;;;;;2.13;1.70;;;8.90;40.00;;;;;;10441841;28;20229;-76
2021/03/12 06:19:56;;;;;;;1.93;1.47;;;8.90;40.00;;;;;;10444020;28;20303;-76
2021/03/12 06:25:13;;;;;;;2.07;1.50;;;8.90;40.00;;;;;;10445769;28;20233;-76
2021/03/12 06:30:18;;;;;;;2.10;1.30;;;9.00;40.10;;;;;;10443756;28;20230;-76
2021/03/12 06:35:22;;;;;;;1.30;0.90;;;9.10;40.00;;;;;;10461665;28;20297;-75
2021/03/12 06:40:27;;;;;;;1.20;0.83;;;9.10;40.10;;;;;;10457170;28;20321;-76
2021/03/12 06:45:31;;;;;;;2.50;1.03;;;9.10;39.60;;;;;;10466230;28;20264;-76
2021/03/12 06:50:43;;;;;;;1.63;1.10;;;9.20;39.80;;;;;;10461320;28;20312;-75
2021/03/12 06:55:46;;;;;;;1.43;0.77;;;9.30;39.80;;;;;;10452422;28;20225;-76
2021/03/12 07:00:49;;;;;;;1.20;0.87;;;9.30;39.40;;;;;;10449209;28;20240;-75
2021/03/12 07:06:06;;;;;;;0.50;0.50;;;9.40;39.40;;;;;;10462448;28;20300;-76
2021/03/12 07:11:22;;;;;;;2.37;0.73;;;9.50;39.40;;;;;;10471140;28;20987;-76
2021/03/12 07:16:26;;;;;;;3.37;0.80;;;9.60;39.30;;;;;;10467735;28;20231;-77
2021/03/12 07:21:29;;;;;;;1.80;0.70;;;9.60;38.90;;;;;;10459759;28;20248;-76
2021/03/12 07:26:41;;;;;;;1.43;1.10;;;9.70;39.10;;;;;;10447574;28;20307;-77
2021/03/12 07:31:45;;;;;;;1.90;1.63;;;9.70;38.60;;;;;;10447309;28;20220;-76
2021/03/12 07:36:50;;;;;;;1.83;0.80;;;9.80;38.60;;;;;;10463409;28;20228;-77
2021/03/12 07:41:53;;;;;;;1.73;0.80;;;9.80;38.40;;;;;;10454349;28;20692;-76
2021/03/12 07:47:19;;;;;;;3.63;0.90;;;9.80;38.20;;;;;;10452569;28;20224;-76
2021/03/12 07:52:49;;;;;;;2.33;1.13;;;9.90;37.50;;;;;;10461901;28;20221;-76
2021/03/12 07:57:52;;;;;;;2.80;1.00;;;10.00;35.90;;;;;;10470446;28;20286;-76
2021/03/12 08:03:00;;;;;;;2.50;0.90;;;10.10;36.40;;;;;;10467871;28;20588;-77
2021/03/12 08:08:02;;;;;;;2.37;0.80;;;10.20;35.70;;;;;;10460050;28;20252;-76
2021/03/12 08:13:29;;;;;;;2.67;0.90;;;10.30;35.90;;;;;;10458338;28;20323;-76
2021/03/12 08:18:32;;;;;;;3.27;0.90;;;10.40;35.70;;;;;;10461717;28;20702;-77
2021/03/12 08:23:46;;;;;;;3.20;1.00;;;10.50;36.10;;;;;;10459595;28;20580;-76
2021/03/12 08:28:48;;;;;;;4.07;1.07;;;10.60;35.20;;;;;;10472259;22;20314;-69
2021/03/12 08:33:52;;;;;;;3.20;1.00;;;10.70;35.90;;;;;;10494082;28;20252;-70
2021/03/12 08:38:54;;;;;;;1.03;0.80;;;10.80;35.80;;;;;;10490146;28;20275;-71
2021/03/12 08:43:57;;;;;;;3.10;1.00;;;10.90;35.70;;;;;;10487592;28;20233;-70
2021/03/12 08:49:08;;;;;;;3.10;0.80;;;11.00;35.30;;;;;;10481013;28;20225;-71
2021/03/12 08:54:10;;;;;;;1.67;0.80;;;11.10;35.20;;;;;;10480010;28;20229;-70
2021/03/12 08:59:12;;;;;;;1.07;0.70;;;11.20;35.20;;;;;;10485428;28;20227;-70
2021/03/12 09:04:15;;;;;;;2.73;1.00;;;11.30;35.10;;;;;;10481634;28;20712;-70
2021/03/12 09:09:25;;;;;;;1.60;0.93;;;11.40;34.80;;;;;;10475574;28;20236;-70
2021/03/12 09:14:38;;;;;;;1.67;0.97;;;11.40;34.30;;;;;;10481313;28;20704;-70
2021/03/12 09:19:42;;;;;;;2.03;0.90;;;11.50;34.10;;;;;;10485282;28;20649;-70
2021/03/12 09:24:52;;;;;;;1.80;0.70;;;11.60;34.10;;;;;;10480768;28;20636;-70
2021/03/12 09:29:55;;;;;;;1.63;0.70;;;11.70;32.50;;;;;;10486348;28;20228;-70
2021/03/12 09:35:14;;;;;;;1.50;1.00;;;11.70;33.40;;;;;;10477738;28;20260;-70
2021/03/12 09:40:35;;;;;;;2.77;0.90;;;11.60;33.10;;;;;;10490507;28;20234;-70
2021/03/12 09:45:37;;;;;;;1.83;1.00;;;11.50;32.40;;;;;;10481389;28;20600;-70
2021/03/12 09:50:41;;;;;;;2.07;0.87;;;11.50;33.20;;;;;;10483304;28;20232;-70
2021/03/12 09:55:44;;;;;;;2.20;0.77;;;11.40;33.10;;;;;;10486654;28;20220;-69
2021/03/12 10:00:46;;;;;;;1.97;0.90;;;11.40;33.40;;;;;;10479269;28;20649;-69
2021/03/12 10:05:49;;;;;;;1.00;0.70;;;11.40;33.30;;;;;;10476488;28;20224;-70
2021/03/12 10:10:56;;;;;;;2.90;1.10;;;11.40;33.70;;;;;;10483804;28;20235;-70
2021/03/12 10:16:18;;;;;;;1.83;1.20;;;11.50;32.60;;;;;;10477389;28;20224;-70
2021/03/12 10:21:24;;;;;;;1.50;1.30;;;11.60;33.20;;;;;;10480593;28;20696;-69
2021/03/12 10:26:29;;;;;;;1.87;0.97;;;11.60;32.50;;;;;;10484735;28;20246;-70
2021/03/12 10:31:37;;;;;;;2.30;1.03;;;11.70;32.30;;;;;;10483966;28;20327;-71
2021/03/12 10:36:41;;;;;;;2.13;1.10;;;11.70;32.10;;;;;;10485073;28;20266;-71
2021/03/12 10:42:03;;;;;;;2.67;0.97;;;11.70;32.70;;;;;;10479282;28;20228;-70
2021/03/12 10:47:09;;;;;;;1.30;0.80;;;11.80;33.00;;;;;;10483053;28;20228;-70
2021/03/12 10:52:26;;;;;;;1.80;0.90;;;11.80;33.00;;;;;;10477243;28;20594;-70
2021/03/12 10:57:39;;;;;;;1.47;0.90;;;11.90;32.80;;;;;;10481651;28;20307;-71
2021/03/12 11:02:42;;;;;;;1.33;0.80;;;12.10;32.00;;;;;;10474424;28;20715;-70
2021/03/12 11:07:47;;;;;;;1.90;0.70;;;12.30;32.70;;;;;;10461691;28;20236;-70
2021/03/12 11:12:51;;;;;;;1.97;0.97;;;12.50;32.00;;;;;;10482173;28;20234;-71
2021/03/12 11:17:53;;;;;;;2.57;1.00;;;12.60;32.10;;;;;;10478385;28;20220;-70
2021/03/12 11:22:56;;;;;;;1.60;0.90;;;12.60;32.00;;;;;;10469872;28;20719;-70
2021/03/12 11:27:59;;;;;;;2.23;0.90;;;12.70;31.80;;;;;;10479755;28;20228;-71
2021/03/12 11:33:03;;;;;;;2.07;1.00;;;12.70;31.30;;;;;;10479679;28;20729;-70
2021/03/12 11:38:09;;;;;;;2.13;1.00;;;12.80;31.90;;;;;;10481778;28;20228;-70
2021/03/12 11:43:11;;;;;;;2.47;0.97;;;12.70;31.50;;;;;;10478964;28;20768;-70
2021/03/12 11:48:13;;;;;;;2.67;0.90;;;12.70;31.30;;;;;;10482285;28;20216;-70
2021/03/12 11:53:18;;;;;;;2.60;1.00;;;12.70;31.10;;;;;;10478896;28;20219;-70
2021/03/12 11:58:20;;;;;;;1.53;0.87;;;12.70;30.70;;;;;;10474968;28;20707;-70
2021/03/12 12:03:22;;;;;;;3.07;1.07;;;12.60;31.00;;;;;;10480990;28;20763;-70
2021/03/12 12:08:25;;;;;;;1.60;0.87;;;12.60;31.20;;;;;;10475769;28;20231;-70
2021/03/12 12:13:27;;;;;;;2.03;1.10;;;12.70;31.40;;;;;;10480144;28;20720;-70
2021/03/12 12:18:30;;;;;;;2.40;1.10;;;12.70;31.50;;;;;;10480315;28;20290;-70
2021/03/12 12:23:33;;;;;;;2.73;1.00;;;12.70;31.90;;;;;;10481680;28;20239;-70
2021/03/12 12:28:35;;;;;;;1.93;0.90;;;12.80;31.60;;;;;;10474338;28;20304;-70
2021/03/12 12:33:38;;;;;;;4.63;1.30;;;12.90;30.70;;;;;;10474263;28;20224;-70
2021/03/12 12:38:42;;;;;;;3.63;1.10;;;13.00;31.10;;;;;;10482399;28;20239;-70
2021/03/12 12:43:44;;;;;;;2.40;1.03;;;13.00;30.40;;;;;;10486221;28;20231;-70
2021/03/12 12:48:47;;;;;;;2.17;0.83;;;13.00;30.40;;;;;;10488160;28;20212;-69
2021/03/12 12:53:51;;;;;;;1.90;1.07;;;13.00;30.60;;;;;;10486634;28;20232;-69
2021/03/12 12:58:53;;;;;;;4.23;0.90;;;13.20;30.50;;;;;;10487792;28;20228;-69
2021/03/12 13:03:55;;;;;;;1.10;0.90;;;13.30;30.60;;;;;;10481734;28;20224;-69
2021/03/12 13:08:58;;;;;;;0.90;0.77;;;13.40;30.70;;;;;;10470918;28;20232;-69
2021/03/12 13:14:01;;;;;;;6.43;4.63;;;13.60;30.60;;;;;;10480932;28;20562;-69
2021/03/12 13:19:03;;;;;;;3.47;1.57;;;13.80;30.40;;;;;;10483112;28;20227;-68
2021/03/12 13:24:17;;;;;;;1.80;1.10;;;13.90;30.00;;;;;;10480614;28;20252;-69
2021/03/12 13:29:19;;;;;;;1.10;1.00;;;14.00;29.00;;;;;;10488121;28;20226;-68
2021/03/12 13:34:22;;;;;;;1.57;1.40;;;14.00;28.80;;;;;;10479007;28;20235;-68
2021/03/12 13:39:25;;;;;;;2.10;1.10;;;13.90;28.90;;;;;;10477043;28;20659;-68
2021/03/12 13:44:27;;;;;;;1.87;1.63;;;13.90;28.50;;;;;;10486717;28;20232;-69
2021/03/12 13:49:30;;;;;;;3.57;2.03;;;13.90;28.50;;;;;;10476494;28;20228;-68
2021/03/12 13:54:40;;;;;;;1.97;1.40;;;13.90;28.10;;;;;;10488762;28;20224;-68
2021/03/12 13:59:43;;;;;;;2.80;1.73;;;13.90;26.90;;;;;;10477516;28;20234;-67
2021/03/12 14:04:45;;;;;;;2.40;1.10;;;13.90;27.50;;;;;;10488881;28;20238;-68
2021/03/12 14:09:48;;;;;;;2.13;1.13;;;13.90;27.50;;;;;;10479811;28;20227;-67
2021/03/12 14:14:52;;;;;;;3.00;1.10;;;13.80;28.00;;;;;;10482190;28;20231;-68
2021/03/12 14:19:54;;;;;;;1.30;1.00;;;13.90;28.30;;;;;;10479617;28;20252;-68
2021/03/12 14:25:09;;;;;;;1.03;0.93;;;14.00;28.40;;;;;;10472769;28;20318;-68
2021/03/12 14:30:12;;;;;;;1.37;0.90;;;14.10;27.40;;;;;;10474116;28;20233;-69
2021/03/12 14:35:14;;;;;;;2.50;1.20;;;14.10;27.40;;;;;;10474770;28;20342;-69
2021/03/12 14:40:18;;;;;;;2.53;1.60;;;14.10;27.70;;;;;;10478144;28;20319;-69
2021/03/12 14:45:21;;;;;;;1.80;1.10;;;14.00;27.20;;;;;;10469434;28;20231;-69
2021/03/12 14:50:23;;;;;;;3.20;1.30;;;14.00;27.70;;;;;;10482046;28;20228;-69
2021/03/12 14:55:30;;;;;;;2.73;1.00;;;13.90;27.80;;;;;;10473510;28;20318;-69
2021/03/12 15:00:32;;;;;;;1.40;0.77;;;13.90;27.50;;;;;;10474892;28;20239;-69
2021/03/12 15:05:34;;;;;;;2.00;0.93;;;13.80;27.80;;;;;;10475529;28;20225;-69
2021/03/12 15:10:38;;;;;;;3.30;1.00;;;13.70;27.80;;;;;;10480401;28;20224;-69
2021/03/12 15:15:40;;;;;;;1.37;0.80;;;13.60;28.00;;;;;;10478484;28;20220;-69
2021/03/12 15:20:43;;;;;;;1.00;0.70;;;13.50;28.00;;;;;;10482301;28;20661;-69
2021/03/12 15:25:53;;;;;;;1.30;0.80;;;13.50;28.40;;;;;;10479128;28;20339;-69
2021/03/12 15:30:55;;;;;;;1.10;0.90;;;13.40;28.20;;;;;;10475932;28;20232;-69
2021/03/12 15:35:57;;;;;;;1.57;0.70;;;13.40;28.50;;;;;;10476544;28;20308;-70
2021/03/12 15:41:01;;;;;;;1.00;0.90;;;13.40;28.50;;;;;;10476848;28;20224;-70
2021/03/12 15:46:03;;;;;;;2.03;1.10;;;13.40;28.60;;;;;;10481336;28;20747;-70
2021/03/12 15:51:06;;;;;;;2.17;1.43;;;13.40;28.40;;;;;;10485284;28;20746;-70
2021/03/12 15:56:20;;;;;;;1.50;1.03;;;13.40;28.50;;;;;;10480297;28;20335;-70
2021/03/12 16:01:22;;;;;;;1.70;1.10;;;13.40;28.40;;;;;;10483374;28;20761;-70
2021/03/12 16:06:25;;;;;;;3.23;1.30;;;13.40;28.50;;;;;;10481846;28;20232;-70
2021/03/12 16:11:28;;;;;;;3.40;1.30;;;13.40;28.50;;;;;;10480299;28;20614;-70
2021/03/12 16:16:30;;;;;;;1.87;1.13;;;13.40;28.30;;;;;;10486944;28;20220;-70
2021/03/12 16:21:32;;;;;;;1.63;1.13;;;13.40;28.60;;;;;;10494331;28;20243;-70
2021/03/12 16:26:45;;;;;;;3.50;1.17;;;13.50;28.60;;;;;;10489300;28;20326;-70
2021/03/12 16:31:48;;;;;;;1.87;1.30;;;13.50;28.50;;;;;;10486821;28;20232;-70
2021/03/12 16:36:50;;;;;;;3.80;1.80;;;13.40;28.60;;;;;;10489874;28;20220;-70
2021/03/12 16:41:54;;;;;;;2.50;2.10;;;13.40;28.60;;;;;;10485066;28;20601;-70
2021/03/12 16:46:59;;;;;;;2.20;1.30;;;13.50;28.50;;;;;;10486036;28;20228;-70
2021/03/12 16:52:01;;;;;;;2.37;1.67;;;13.40;28.50;;;;;;10484729;28;20629;-70
2021/03/12 16:57:15;;;;;;;2.70;1.70;;;13.40;28.40;;;;;;10484017;28;20220;-70
2021/03/12 17:02:19;;;;;;;3.00;1.60;;;13.40;28.10;;;;;;10484815;28;20726;-70
2021/03/12 17:07:22;;;;;;;5.17;3.90;;;13.30;28.30;;;;;;10483454;28;20579;-70
2021/03/12 17:12:25;;;;;;;4.10;3.47;;;13.20;28.40;;;;;;10488192;28;20228;-70
2021/03/12 17:17:28;;;;;;;2.97;2.13;;;13.10;28.30;;;;;;10486434;28;20223;-70
2021/03/12 17:22:30;;;;;;;4.10;3.70;;;13.10;28.40;;;;;;10485177;28;20260;-71
2021/03/12 17:27:33;;;;;;;4.70;3.23;;;13.00;28.40;;;;;;10485259;28;20228;-71
2021/03/12 17:32:35;;;;;;;4.00;2.90;;;12.90;28.20;;;;;;10485720;28;20235;-73
2021/03/12 17:37:38;;;;;;;4.10;3.13;;;12.80;28.40;;;;;;10481322;28;20274;-70
2021/03/12 17:42:42;;;;;;;4.70;2.80;;;12.80;28.50;;;;;;10477047;28;20230;-69
2021/03/12 17:47:44;;;;;;;4.40;2.77;;;12.70;30.10;;;;;;10482930;28;20247;-68
2021/03/12 17:52:46;;;;;;;8.20;6.13;;;12.70;29.10;;;;;;10485162;28;20791;-68
2021/03/12 17:57:58;;;;;;;7.60;4.40;;;12.70;28.80;;;;;;10488594;28;20247;-68
2021/03/12 18:03:01;;;;;;;8.27;6.57;;;12.70;28.90;;;;;;10474900;28;20232;-68
2021/03/12 18:08:04;;;;;;;6.23;4.67;;;12.60;28.80;;;;;;10488595;28;20224;-68
2021/03/12 18:13:08;;;;;;;7.40;5.00;;;12.60;28.90;;;;;;10473905;28;20230;-68
2021/03/12 18:18:10;;;;;;;11.03;8.87;;;12.50;28.60;;;;;;10484648;28;20226;-68
2021/03/12 18:23:13;;;;;;;9.07;7.13;;;12.40;28.50;;;;;;10483774;28;20280;-68
2021/03/12 18:28:19;;;;;;;15.23;11.30;;;12.20;28.40;;;;;;10484403;28;20236;-68
2021/03/12 18:33:21;;;;;;;12.03;10.13;;;12.00;28.40;;;;;;10477346;28;20255;-68
2021/03/12 18:38:24;;;;;;;7.47;6.00;;;11.80;28.50;;;;;;10484448;28;20221;-68
2021/03/12 18:43:28;;;;;;;7.97;5.77;;;11.70;28.70;;;;;;10481425;28;20582;-68
2021/03/12 18:48:31;;;;;;;6.80;5.07;;;11.50;28.60;;;;;;10484334;28;20225;-68
2021/03/12 18:53:33;;;;;;;4.67;3.43;;;11.40;28.80;;;;;;10480278;28;20567;-68
2021/03/12 18:58:42;;;;;;;4.23;2.93;;;11.20;28.60;;;;;;10482047;28;20313;-68
2021/03/12 19:03:44;;;;;;;4.13;2.47;;;11.10;29.10;;;;;;10483984;28;20220;-68
2021/03/12 19:08:46;;;;;;;3.57;2.33;;;11.00;29.00;;;;;;10479193;28;20703;-68
2021/03/12 19:13:49;;;;;;;4.27;2.90;;;10.90;28.90;;;;;;10479674;28;20601;-68
2021/03/12 19:18:52;;;;;;;5.67;3.70;;;10.80;28.90;;;;;;10486971;28;20651;-68
2021/03/12 19:23:54;;;;;;;5.13;3.27;;;10.70;28.80;;;;;;10469984;28;20221;-68
2021/03/12 19:29:06;;;;;;;5.40;3.27;;;10.70;28.80;;;;;;10470726;28;20216;-68
2021/03/12 19:34:09;;;;;;;5.63;3.20;;;10.60;28.70;;;;;;10476814;28;20229;-68
2021/03/12 19:39:13;;;;;;;4.60;3.00;;;10.50;28.70;;;;;;10474979;28;20234;-69
2021/03/12 19:44:18;;;;;;;5.33;2.93;;;10.50;28.70;;;;;;10462758;28;20359;-69
2021/03/12 19:49:21;;;;;;;6.83;4.50;;;10.40;29.10;;;;;;10479295;28;20236;-69
2021/03/12 19:54:24;;;;;;;4.30;3.37;;;10.40;28.60;;;;;;10468666;28;20899;-68
2021/03/12 19:59:29;;;;;;;8.10;4.97;;;10.40;28.60;;;;;;10482028;28;20220;-68
2021/03/12 20:04:32;;;;;;;4.73;3.70;;;10.30;28.50;;;;;;10483365;28;20231;-68
2021/03/12 20:09:34;;;;;;;6.07;4.07;;;10.20;28.50;;;;;;10482168;28;20235;-68
2021/03/12 20:14:37;;;;;;;6.03;4.63;;;10.00;28.60;;;;;;10473233;28;20594;-69
2021/03/12 20:19:40;;;;;;;4.93;3.97;;;9.90;29.50;;;;;;10479803;28;20796;-70
2021/03/12 20:24:44;;;;;;;5.30;4.03;;;9.80;29.60;;;;;;10475692;28;20227;-70
2021/03/12 20:29:49;;;;;;;6.10;4.27;;;9.80;29.70;;;;;;10482190;28;20708;-69
2021/03/12 20:34:52;;;;;;;6.40;4.10;;;9.70;29.80;;;;;;10484462;28;20228;-68
2021/03/12 20:39:54;;;;;;;6.70;3.80;;;9.70;29.90;;;;;;10478052;28;20609;-68
2021/03/12 20:44:58;;;;;;;5.57;3.77;;;9.60;29.90;;;;;;10479272;22;20216;-72
2021/03/12 20:50:01;;;;;;;6.03;3.30;;;9.50;30.00;;;;;;10459823;28;20486;-72
2021/03/12 20:55:03;;;;;;;5.73;3.30;;;9.40;30.00;;;;;;10435369;28;20221;-72
2021/03/12 21:00:15;;;;;;;5.23;2.80;;;9.40;30.20;;;;;;10427152;28;20229;-72
2021/03/12 21:05:18;;;;;;;4.77;2.73;;;9.30;30.30;;;;;;10438293;28;20224;-70
2021/03/12 21:10:21;;;;;;;3.87;2.73;;;9.30;30.30;;;;;;10442168;28;20591;-70
2021/03/12 21:15:25;;;;;;;5.33;2.70;;;9.20;30.30;;;;;;10436689;28;20410;-70
2021/03/12 21:20:27;;;;;;;5.03;2.33;;;9.20;30.60;;;;;;10446035;28;20225;-70
2021/03/12 21:25:40;;;;;;;4.03;2.90;;;9.10;30.60;;;;;;10456701;28;20231;-70
2021/03/12 21:30:43;;;;;;;4.23;2.50;;;9.20;30.80;;;;;;10455006;28;20217;-70
2021/03/12 21:35:46;;;;;;;3.30;2.70;;;9.20;30.90;;;;;;10456033;28;20232;-70
2021/03/12 21:40:48;;;;;;;4.03;3.00;;;9.20;30.80;;;;;;10450802;28;20692;-71
2021/03/12 21:45:51;;;;;;;4.67;3.27;;;9.20;30.90;;;;;;10457863;28;20228;-70
2021/03/12 21:50:53;;;;;;;7.03;3.23;;;9.10;31.10;;;;;;10458355;28;20233;-72
2021/03/12 21:55:56;;;;;;;3.13;2.60;;;9.10;31.00;;;;;;10458609;28;20216;-72
2021/03/12 22:00:59;;;;;;;5.73;3.20;;;9.10;31.20;;;;;;10453294;28;20240;-72
2021/03/12 22:06:01;;;;;;;3.03;2.47;;;9.00;31.10;;;;;;10454687;28;20239;-70
2021/03/12 22:11:04;;;;;;;4.57;2.33;;;9.00;31.10;;;;;;10455759;28;20230;-70
2021/03/12 22:16:07;;;;;;;5.87;2.40;;;9.10;31.10;;;;;;10434933;28;20236;-71
2021/03/12 22:21:09;;;;;;;4.27;2.00;;;9.10;31.00;;;;;;10447807;28;20235;-72
2021/03/12 22:26:12;;;;;;;3.93;1.90;;;9.10;31.10;;;;;;10442567;28;20420;-72
2021/03/12 22:31:20;;;;;;;3.97;2.10;;;9.20;31.20;;;;;;10443623;28;20716;-72
2021/03/12 22:36:22;;;;;;;2.30;1.13;;;9.20;31.10;;;;;;10439270;28;20231;-72
2021/03/12 22:41:24;;;;;;;1.67;1.10;;;9.20;31.00;;;;;;10442857;28;20237;-68
2021/03/12 22:46:28;;;;;;;1.97;1.20;;;9.20;31.10;;;;;;10431637;28;20625;-68
2021/03/12 22:51:31;;;;;;;2.90;1.20;;;9.30;31.10;;;;;;10437506;28;20287;-68
2021/03/12 22:56:33;;;;;;;3.23;1.10;;;9.40;31.20;;;;;;10434345;28;20228;-68
2021/03/12 23:01:41;;;;;;;2.10;1.00;;;9.60;31.10;;;;;;10449130;28;20225;-68
2021/03/12 23:06:43;;;;;;;2.27;0.90;;;9.80;30.80;;;;;;10448581;28;20752;-70
2021/03/12 23:11:45;;;;;;;1.10;0.90;;;10.00;29.90;;;;;;10446207;28;20311;-70
2021/03/12 23:16:48;;;;;;;2.47;0.93;;;10.10;29.90;;;;;;10447900;28;20223;-69
2021/03/12 23:21:51;;;;;;;2.13;1.00;;;10.20;29.80;;;;;;10454875;28;20236;-69
2021/03/12 23:26:53;;;;;;;2.10;1.00;;;10.30;29.80;;;;;;10436212;28;20225;-70
2021/03/12 23:32:06;;;;;;;1.40;1.00;;;10.30;29.40;;;;;;10437518;28;20225;-68
2021/03/12 23:37:08;;;;;;;1.53;1.00;;;10.40;29.50;;;;;;10430229;28;20286;-65
2021/03/12 23:42:11;;;;;;;2.03;0.80;;;10.50;29.40;;;;;;10455884;28;20267;-65
2021/03/12 23:47:14;;;;;;;2.10;1.13;;;10.60;29.30;;;;;;10442397;28;20712;-66
2021/03/12 23:52:16;;;;;;;2.50;0.90;;;10.60;29.20;;;;;;10450256;28;20603;-65
2021/03/12 23:57:18;;;;;;;1.70;1.00;;;10.60;29.10;;;;;;10457443;28;20321;-65
